Terminal Aerodrome Forecast
Issued by NWS Lake Charles, LA

Home | Current Version | Previous Version | Text Only | Print | Product List | Glossary On
Versions: 1 2 3 4 5 6 7 8 9 10 11 12 13 14 15 16 17
000
FTUS44 KLCH 280520
TAFAEX
TAF
KAEX 280520Z 2806/2906 11005KT P6SM SKC
     FM280900 14008KT P6SM OVC025
      TEMPO 2810/2814 BKN008 OVC015
     FM281400 16015G23KT 4SM BR OVC025
     FM282000 18018G26KT P6SM OVC025=

USA.gov is the U.S. government's official web portal to all federal, state and local government web resources and services.